Rocky Branch, Louisiana
Current Conditions -  °F | °C
As of 1:31 AM on Saturday 25 Oct 2014 (Local Time) from KMLU Reporting Station
Moderate Fog Moderate Fog  
Wind Chill: 50°   Ceiling: Unl
Heat Index: 50°   Visibility: 0.5mi
Dew Point: 48°   Wind: 0mph
Humidity: 93%   Direction: NA
Pressure: 30.14"   Gusts: NA
Location:  32.7394°N, 92.2308°W
Report Text: KMLU 250631Z AUTO 00000KT 1/2SM FG CLR 10/09 A3014 RMK AO2 T01000089
Loading
Personal Weather Stations






























Interactive Weather Map
Tropical Storm Tracking
New forecast layout! Learn more

10-Day Weather Forecast

Advertisements
Track Severe Weather on mobile